• Join FlightAware (Why Join?)
  • Login
  • US Flag 
08:06AM EDT


 

Airport Tracker/Info


-or-


 

Live Flight TrackerFlight Track Log ✈ ASQ4577 ✈ 04-Aug-2013 ✈ KCLE - KALB

Flight Track Log - Related Links

Times and Time Zones

All times are in EDT time to prevent confusion due to time zone crossing. See the ASQ4577 flight status page for this flight to view local times or setup timezone preferences in your user account.

Time Position Orientation Groundspeed Altitude Reporting Facility
EDT Latitude Longitude Course Direction KTS MPH feet Rate Location/Type
07:28PM 41.4194 -81.8375 90° East 163 188 1,800  Level Cleveland Center
07:29PM 41.4489 -81.8158 29° Northeast 195 224 3,000 1,980 Climbing Cleveland Center
07:30PM 41.5139 -81.7700 28° Northeast 255 293 5,300 2,400 Climbing Cleveland Center
07:31PM 41.5750 -81.7183 32° Northeast 260 299 8,100 2,520 Climbing Cleveland Center
07:32PM 41.7446 -81.5055 37° Northeast  Level FlightAware Approximate
07:32PM 41.6319 -81.6528 41° Northeast 260 299 10,400  Level Cleveland Center
07:33PM 41.8313 -81.4187 37° Northeast  Level FlightAware Approximate
07:33PM 41.6972 -81.5814 39° Northeast 289 333 11,400  Level Cleveland Center
07:34PM 41.8500 -81.2778 90° East  Level FlightAware Approximate
07:34PM 41.7750 -81.4936 40° Northeast 333 383 12,100  Level Cleveland Center
07:35PM 41.8383 -81.4025 47° Northeast 360 414 13,100 1,260 Climbing Cleveland Center
07:36PM 41.8642 -81.2606 76° East 375 432 14,700 1,500 Climbing Cleveland Center
07:37PM 41.8858 -81.1158 79° East 380 437 16,100 1,320 Climbing Cleveland Center
07:38PM 41.9114 -80.9739 76° East 392 451 17,400 1,140 Climbing Cleveland Center
07:39PM 41.9325 -80.8261 79° East 392 451 18,400 1,140 Climbing Cleveland Center
07:40PM 41.9558 -80.6753 78° East 398 458 19,700 1,260 Climbing Cleveland Center
07:41PM 41.9786 -80.5078 80° East 406 467 21,000 1,200 Climbing Cleveland Center
07:42PM 42.0036 -80.3542 78° East 413 475 22,200 1,200 Climbing Cleveland Center
07:43PM 42.0261 -80.1892 80° East 424 488 23,500 1,200 Climbing Cleveland Center
07:44PM 42.0483 -80.0322 79° East 429 494 24,600 1,080 Climbing Cleveland Center
07:45PM 42.0725 -79.8728 78° East 429 494 25,700 1,020 Climbing Cleveland Center
07:46PM 42.0942 -79.7072 80° East 429 494 26,700 1,020 Climbing Cleveland Center
07:47PM 42.1178 -79.5392 79° East 434 499 27,800 1,020 Climbing Cleveland Center
07:48PM 42.1392 -79.3792 80° East 440 506 28,800 1,020 Climbing Cleveland Center
07:49PM 42.1603 -79.2133 80° East 440 506 29,900 1,020 Climbing Cleveland Center
07:50PM 42.1811 -79.0533 80° East 440 506 30,900 540 Climbing Cleveland Center
07:51PM 42.2058 -78.8817 79° East 452 520 31,000  Climbing Cleveland Center
07:52PM 42.2303 -78.7017 80° East 465 535 31,000  Level Cleveland Center
07:53PM 42.2522 -78.5242 80° East 476 548 31,000  Level Cleveland Center
07:54PM 42.2758 -78.3439 80° East 481 554 31,000  Level Cleveland Center
07:55PM 42.2972 -78.1633 81° East 486 559 31,000  Level Cleveland Center
07:56PM 42.3183 -77.9828 81° East 486 559 31,000  Level Cleveland Center
07:57PM 42.3392 -77.8078 81° East 486 559 31,000 -120 Level Cleveland Center
07:58PM 42.3600 -77.6356 81° East 481 554 30,800 -720 Descending Cleveland Center
08:00PM 42.3947 -77.3356 81° East 481 554 29,100 -660 Descending Boston Center
08:01PM 42.4172 -77.1517 81° East 481 554 29,000 -60 Descending Boston Center
08:02PM 42.4369 -76.9731 81° East 481 554 29,000  Level Boston Center
08:03PM 42.4586 -76.7944 81° East 481 554 29,000  Level Boston Center
08:04PM 42.4781 -76.6125 82° East 481 554 29,000  Level Boston Center
08:05PM 42.4989 -76.4336 81° East 481 554 29,000 -240 Level Boston Center
08:06PM 42.5183 -76.2319 82° East 486 559 28,500 -480 Descending Boston Center
08:07PM 42.5419 -76.0250 81° East 480 552 28,000 -840 Descending Boston Center
08:08PM 42.5578 -75.8453 83° East 473 544 26,900 -1,560 Descending Boston Center
08:09PM 42.5756 -75.6686 82° East 473 544 25,000 -1,980 Descending Boston Center
08:10PM 42.5947 -75.4947 81° East 480 552 23,000 -2,040 Descending Boston Center
08:11PM 42.6094 -75.3317 83° East 456 525 21,000 -2,040 Descending Boston Center
08:12PM 42.6261 -75.1717 82° East 442 509 19,100 -1,980 Descending Boston Center
08:13PM 42.6403 -75.0058 83° East 436 502 17,100 -1,980 Descending Boston Center
08:14PM 42.6561 -74.8539 82° East 431 496 15,100 -2,040 Descending Boston Center
08:15PM 42.6667 -74.7500 82° East 398 458 13,700 -1,980 Descending Boston Center
08:16PM 42.6850 -74.5583 83° East 387 445 11,200 -1,200 Descending Boston Center
08:17PM 42.6892 -74.4344 87° East 378 435 11,000 -720 Descending Boston Center
08:18PM 42.6833 -74.3014 93° East 331 381 9,800 -1,440 Descending Boston Center
08:19PM 42.6764 -74.2053 96° East 292 336 8,100 -1,800 Descending Boston Center
08:20PM 42.6719 -74.0892 93° East 281 323 6,200 -1,860 Descending Boston Center
08:21PM 42.6692 -73.9875 92° East 275 316 4,400 -1,620 Descending Boston Center
08:22PM 42.6706 -73.8886 89° East 270 311 3,000 -720 Descending Boston Center
08:23PM 42.6758 -73.7983 85° East 256 295 3,000 -420 Level Boston Center
08:24PM 42.6889 -73.7308 75° East 222 255 2,200 -780 Descending Boston Center
08:25PM 42.7206 -73.7175 17° North 222 255 1,500 -420 Descending Boston Center
08:26PM 42.7336 -73.6442 76° East 182 209 1,400 13,020 Descending Boston Center
08:27PM 42.7450 -73.5739 78° East 182 209 28,000 13,140 Climbing Boston Center
08:28PM 42.7561 -73.5033 78° East 182 209 28,000  Level Boston Center
08:29PM 42.7669 -73.4328 78° East 182 209 28,000  Level Boston Center